Airport View

Enter AWOS ICAO identifier for current METAR.

KFNL for example

KPIT 060451Z 35011KT 10SM FEW250 11/06 A2977

6 May 2016 05:23

Phone: 412-472-0145

Other Area AWOS: 42PN - KAGC - KBVI - KBTP

TAF AMD KPIT 060232Z 0603/0706 35012KT P6SM BKN040